Minneapolis, MN

10:34 PM CST on February 21, 2017 (GMT -0600)
RBC Plaza Weather | | Change Station
Active Advisory: Winter Storm Watch

Elev 853 ft 44.98 °N, 93.27 °W | Updated 9 seconds ago

Clear
Clear
51.5 °F
Feels Like 51.5 °F
N
10.0
Wind Variable Wind from East

Today
High -- | Low -- °F
--% Chance of Precip.
Yesterday
High -- | Low -- °F
Precip. -- in
Pressure 29.69 in
Visibility 10.0 miles
Clouds Clear
Dew Point 46 °F
Humidity 81%
Rainfall 0.00 in
Snow Depth Not available.
7:03 AM 5:49 PM
Waning Crescent, 20% visible
METAR KMIC 220353Z 19004KT 10SM CLR 09/06 A2969 RMK AO2 SLPNO T00940056
Pressure 29.69 in
Visibility 10.0 miles
Clouds Clear
Dew Point 46 °F
Humidity 81%
Rainfall 0.00 in
Snow Depth Not available.
7:03 AM 5:49 PM
Waning Crescent, 20% visible
METAR KMIC 220353Z 19004KT 10SM CLR 09/06 A2969 RMK AO2 SLPNO T00940056

Get Your Daily Forecast Email!

Thanks for signing up!

Be on the lookout for a verification email in your inbox.

You'll start receiving the daily forecast at 8 AM.

×

10-Day Weather Forecast

Almanac

Astronomy

Feb. 21, 2017 Rise Set
Actual Time
Civil Twilight
Nautical Twilight
Astronomical Twilight
Moon
Length of Visible Light
Length of Day
Tomorrow will be .
, % of the Moon is Illuminated

Today's Extremes

State Highs State Lows

Community

WunderPhotos

Upload Photos

1,962,540 photos uploaded!

WunderBlog® & News

Nearby

Air Quality

  Air Quality AQ Index Pollutant
Not available.

Snow Depth

Station Depth Elevation

Earthquake Activity

City Distance Mag. Time & Date
Minimum magnitude displayed is 2.5.

Coastal Water Temperatures

Place Temperature

Stations

Nearby Weather Stations

Station Location Temp. Windchill Dew Point Humidity Wind Precip. Elev Updated Type
                   

Watches & Warnings

Winter Storm Watch
Issued: 9:29 PM CST Feb. 21, 2017 – National Weather Service

... Winter Storm Watch remains in effect from Thursday evening
through Friday afternoon...

* timing... rain will turn to heavy snow Thursday evening and
continue through Friday.

* Snow accumulations... 6 to 12 inches are likely, with amounts in
excess of 12 inches possible.

* Winds... northeast to northwest 20 to 30 mph with gusts to 40
mph resulting in considerable blowing snow and possible
blizzard conditions.

Precautionary/preparedness actions...

A Winter Storm Watch means there is a potential for significant
snow... sleet... or ice accumulations that may impact travel.
Continue to monitor the latest forecasts.